sensor_id;sensor_type;location;lat;lon;timestamp;pressure;altitude;pressure_sealevel;temperature;humidity
9343;BME280;4710;51.382;7.244;2022-09-27T01:42:13;97428.66;;;20.42;73.92
9343;BME280;4710;51.382;7.244;2022-09-27T01:45:10;97426.72;;;21.20;72.60
9343;BME280;4710;51.382;7.244;2022-09-27T02:12:21;97439.19;;;19.68;79.34
9343;BME280;4710;51.382;7.244;2022-09-27T02:15:23;97437.53;;;18.87;80.36
9343;BME280;4710;51.382;7.244;2022-09-27T03:11:20;97477.05;;;18.27;86.14
9343;BME280;4710;51.382;7.244;2022-09-27T03:21:00;97475.33;;;18.96;79.97
9343;BME280;4710;51.382;7.244;2022-09-27T04:34:56;97518.20;;;18.16;81.45
9343;BME280;4710;51.382;7.244;2022-09-27T05:16:48;97555.19;;;18.93;76.76
9343;BME280;4710;51.382;7.244;2022-09-27T05:30:15;97555.31;;;19.49;74.68
9343;BME280;4710;51.382;7.244;2022-09-27T05:43:41;97562.99;;;18.79;74.76
9343;BME280;4710;51.382;7.244;2022-09-27T05:49:59;97575.53;;;17.71;80.64
9343;BME280;4710;51.382;7.244;2022-09-27T07:51:21;97664.61;;;17.37;76.88
9343;BME280;4710;51.382;7.244;2022-09-27T07:54:02;97659.04;;;18.79;72.37
9343;BME280;4710;51.382;7.244;2022-09-27T08:35:48;97712.06;;;18.19;74.82
9343;BME280;4710;51.382;7.244;2022-09-27T09:56:02;97714.25;;;18.91;72.90
9343;BME280;4710;51.382;7.244;2022-09-27T09:58:48;97717.42;;;18.63;71.52
9343;BME280;4710;51.382;7.244;2022-09-27T10:01:40;97714.69;;;19.00;72.24
9343;BME280;4710;51.382;7.244;2022-09-27T10:15:20;97715.09;;;19.49;68.38
9343;BME280;4710;51.382;7.244;2022-09-27T10:28:48;97695.98;;;19.24;69.37
9343;BME280;4710;51.382;7.244;2022-09-27T10:31:45;97704.91;;;18.90;72.03
9343;BME280;4710;51.382;7.244;2022-09-27T10:34:33;97701.83;;;19.02;71.52
9343;BME280;4710;51.382;7.244;2022-09-27T12:29:51;97655.67;;;19.36;63.95
9343;BME280;4710;51.382;7.244;2022-09-27T12:43:20;97656.83;;;19.70;62.96
9343;BME280;4710;51.382;7.244;2022-09-27T12:56:52;97658.56;;;20.18;64.32
9343;BME280;4710;51.382;7.244;2022-09-27T13:53:18;97686.98;;;19.21;72.44
9343;BME280;4710;51.382;7.244;2022-09-27T14:49:47;97677.14;;;19.99;68.73
9343;BME280;4710;51.382;7.244;2022-09-27T14:52:30;97689.30;;;20.23;67.49
9343;BME280;4710;51.382;7.244;2022-09-27T14:55:15;97688.52;;;19.74;67.24
9343;BME280;4710;51.382;7.244;2022-09-27T14:57:54;97690.75;;;19.95;67.45
9343;BME280;4710;51.382;7.244;2022-09-27T15:00:33;97693.00;;;19.53;67.38
9343;BME280;4710;51.382;7.244;2022-09-27T15:03:25;97694.08;;;20.80;64.40
9343;BME280;4710;51.382;7.244;2022-09-27T15:06:04;97690.54;;;20.73;63.72
9343;BME280;4710;51.382;7.244;2022-09-27T15:08:41;97691.61;;;20.87;61.68
9343;BME280;4710;51.382;7.244;2022-09-27T15:11:22;97690.45;;;20.74;63.69
9343;BME280;4710;51.382;7.244;2022-09-27T15:14:02;97698.98;;;20.21;63.75
9343;BME280;4710;51.382;7.244;2022-09-27T15:59:22;97703.30;;;20.46;60.13
9343;BME280;4710;51.382;7.244;2022-09-27T16:02:05;97696.83;;;20.71;58.69
9343;BME280;4710;51.382;7.244;2022-09-27T16:15:18;97688.80;;;21.54;56.51
9343;BME280;4710;51.382;7.244;2022-09-27T16:17:55;97689.55;;;20.36;57.60
9343;BME280;4710;51.382;7.244;2022-09-27T16:20:44;97684.87;;;21.36;56.83
9343;BME280;4710;51.382;7.244;2022-09-27T16:23:27;97684.02;;;20.66;57.01
9343;BME280;4710;51.382;7.244;2022-09-27T16:26:07;97688.50;;;20.28;57.52
9343;BME280;4710;51.382;7.244;2022-09-27T16:28:45;97690.05;;;20.44;56.98
9343;BME280;4710;51.382;7.244;2022-09-27T16:31:26;97703.11;;;19.67;60.43
9343;BME280;4710;51.382;7.244;2022-09-27T16:34:27;97708.78;;;19.80;63.52
9343;BME280;4710;51.382;7.244;2022-09-27T17:41:48;97669.57;;;19.63;59.45
9343;BME280;4710;51.382;7.244;2022-09-27T17:44:39;97667.52;;;19.07;58.48
9343;BME280;4710;51.382;7.244;2022-09-27T17:47:21;97660.66;;;19.08;57.96
9343;BME280;4710;51.382;7.244;2022-09-27T17:50:04;97660.30;;;20.18;55.86
9343;BME280;4710;51.382;7.244;2022-09-27T18:14:03;97647.43;;;21.25;52.54
9343;BME280;4710;51.382;7.244;2022-09-27T18:16:46;97645.52;;;21.06;53.58
9343;BME280;4710;51.382;7.244;2022-09-27T18:19:26;97640.34;;;21.22;53.07
9343;BME280;4710;51.382;7.244;2022-09-27T18:22:04;97644.48;;;20.31;54.25
9343;BME280;4710;51.382;7.244;2022-09-27T18:24:45;97641.94;;;20.88;53.80
9343;BME280;4710;51.382;7.244;2022-09-27T18:27:25;97638.45;;;21.62;52.68
9343;BME280;4710;51.382;7.244;2022-09-27T18:30:02;97632.56;;;21.59;52.56
9343;BME280;4710;51.382;7.244;2022-09-27T18:32:43;97632.98;;;21.37;52.08
9343;BME280;4710;51.382;7.244;2022-09-27T18:35:20;97641.34;;;21.24;52.22
9343;BME280;4710;51.382;7.244;2022-09-27T18:38:01;97643.58;;;21.15;52.78
9343;BME280;4710;51.382;7.244;2022-09-27T18:40:40;97634.19;;;20.39;55.37
9343;BME280;4710;51.382;7.244;2022-09-27T18:43:27;97633.75;;;20.74;55.17
9343;BME280;4710;51.382;7.244;2022-09-27T18:46:14;97623.92;;;20.59;54.89
9343;BME280;4710;51.382;7.244;2022-09-27T18:49:03;97630.11;;;20.80;53.61
9343;BME280;4710;51.382;7.244;2022-09-27T18:51:43;97629.38;;;20.47;54.65
9343;BME280;4710;51.382;7.244;2022-09-27T18:54:23;97624.84;;;20.33;54.70
9343;BME280;4710;51.382;7.244;2022-09-27T18:57:04;97623.66;;;19.87;55.91
9343;BME280;4710;51.382;7.244;2022-09-27T18:59:41;97628.05;;;20.18;56.54
9343;BME280;4710;51.382;7.244;2022-09-27T19:02:18;97632.52;;;20.09;55.74
9343;BME280;4710;51.382;7.244;2022-09-27T19:04:56;97633.42;;;19.52;58.68
9343;BME280;4710;51.382;7.244;2022-09-27T19:07:39;97633.52;;;20.35;57.26
9343;BME280;4710;51.382;7.244;2022-09-27T19:10:19;97631.08;;;20.24;56.04
9343;BME280;4710;51.382;7.244;2022-09-27T19:12:57;97631.34;;;20.05;57.00
9343;BME280;4710;51.382;7.244;2022-09-27T19:15:37;97630.55;;;20.86;55.47
9343;BME280;4710;51.382;7.244;2022-09-27T19:18:14;97626.16;;;19.94;57.34
9343;BME280;4710;51.382;7.244;2022-09-27T19:21:00;97622.48;;;20.16;56.03
9343;BME280;4710;51.382;7.244;2022-09-27T19:23:35;97614.78;;;20.98;55.99
9343;BME280;4710;51.382;7.244;2022-09-27T19:26:14;97612.42;;;21.36;53.86
9343;BME280;4710;51.382;7.244;2022-09-27T19:28:53;97610.44;;;20.71;53.94
9343;BME280;4710;51.382;7.244;2022-09-27T19:31:36;97606.36;;;21.54;53.03
9343;BME280;4710;51.382;7.244;2022-09-27T19:34:14;97604.53;;;20.56;54.25
9343;BME280;4710;51.382;7.244;2022-09-27T19:36:51;97602.76;;;21.74;53.17
9343;BME280;4710;51.382;7.244;2022-09-27T19:39:31;97602.84;;;21.79;52.14
9343;BME280;4710;51.382;7.244;2022-09-27T19:42:09;97595.87;;;22.23;50.75
9343;BME280;4710;51.382;7.244;2022-09-27T19:44:46;97592.59;;;22.71;50.16
9343;BME280;4710;51.382;7.244;2022-09-27T19:47:23;97583.05;;;22.68;49.64
9343;BME280;4710;51.382;7.244;2022-09-27T19:50:03;97583.66;;;22.89;49.03
9343;BME280;4710;51.382;7.244;2022-09-27T19:52:42;97595.06;;;22.91;49.15
9343;BME280;4710;51.382;7.244;2022-09-27T19:55:23;97589.78;;;22.43;49.30
9343;BME280;4710;51.382;7.244;2022-09-27T19:58:04;97586.88;;;21.78;49.68
9343;BME280;4710;51.382;7.244;2022-09-27T20:00:41;97570.42;;;22.98;48.95
9343;BME280;4710;51.382;7.244;2022-09-27T20:03:18;97571.86;;;22.70;48.53
9343;BME280;4710;51.382;7.244;2022-09-27T20:05:59;97568.21;;;22.71;48.79
9343;BME280;4710;51.382;7.244;2022-09-27T20:08:39;97565.24;;;23.22;48.07
9343;BME280;4710;51.382;7.244;2022-09-27T20:11:17;97567.27;;;23.31;48.04
9343;BME280;4710;51.382;7.244;2022-09-27T20:13:57;97561.97;;;22.26;48.34
9343;BME280;4710;51.382;7.244;2022-09-27T20:16:40;97561.34;;;22.90;48.56
9343;BME280;4710;51.382;7.244;2022-09-27T20:19:18;97558.70;;;23.20;47.92
9343;BME280;4710;51.382;7.244;2022-09-27T20:21:55;97558.02;;;22.86;48.72
9343;BME280;4710;51.382;7.244;2022-09-27T20:24:35;97555.11;;;22.73;49.12
9343;BME280;4710;51.382;7.244;2022-09-27T20:27:16;97553.41;;;23.11;48.41
9343;BME280;4710;51.382;7.244;2022-09-27T20:30:00;97547.27;;;22.91;48.63
9343;BME280;4710;51.382;7.244;2022-09-27T20:32:40;97545.16;;;23.20;47.87
9343;BME280;4710;51.382;7.244;2022-09-27T20:35:31;97545.83;;;21.55;50.16
9343;BME280;4710;51.382;7.244;2022-09-27T21:31:43;97500.47;;;20.02;59.07
9343;BME280;4710;51.382;7.244;2022-09-27T21:34:26;97501.04;;;18.65;61.46
9343;BME280;4710;51.382;7.244;2022-09-27T21:37:09;97484.14;;;19.97;61.29
9343;BME280;4710;51.382;7.244;2022-09-27T21:39:58;97488.38;;;19.49;61.81
9343;BME280;4710;51.382;7.244;2022-09-27T21:42:38;97484.55;;;19.48;62.85
9343;BME280;4710;51.382;7.244;2022-09-27T21:45:16;97490.02;;;18.08;68.20
9343;BME280;4710;51.382;7.244;2022-09-27T21:47:53;97484.34;;;18.86;69.65
9343;BME280;4710;51.382;7.244;2022-09-27T21:50:31;97483.85;;;19.23;65.81
9343;BME280;4710;51.382;7.244;2022-09-27T21:53:15;97477.56;;;19.02;67.18
9343;BME280;4710;51.382;7.244;2022-09-27T21:56:08;97475.39;;;20.34;61.77
9343;BME280;4710;51.382;7.244;2022-09-27T21:58:53;97477.98;;;19.35;64.72
9343;BME280;4710;51.382;7.244;2022-09-27T22:01:36;97468.76;;;19.28;63.69
9343;BME280;4710;51.382;7.244;2022-09-27T22:04:14;97467.91;;;19.80;65.48
9343;BME280;4710;51.382;7.244;2022-09-27T22:17:25;97449.61;;;20.06;65.59
9343;BME280;4710;51.382;7.244;2022-09-27T22:20:08;97446.48;;;19.91;64.74
9343;BME280;4710;51.382;7.244;2022-09-27T22:22:47;97446.20;;;19.40;65.40
9343;BME280;4710;51.382;7.244;2022-09-27T22:25:24;97440.59;;;20.40;63.69
9343;BME280;4710;51.382;7.244;2022-09-27T22:28:01;97433.53;;;19.85;63.55
9343;BME280;4710;51.382;7.244;2022-09-27T22:30:42;97443.00;;;18.90;68.79
9343;BME280;4710;51.382;7.244;2022-09-27T22:33:20;97442.50;;;20.57;63.11
9343;BME280;4710;51.382;7.244;2022-09-27T22:35:58;97440.95;;;20.27;62.00
9343;BME280;4710;51.382;7.244;2022-09-27T22:38:38;97435.89;;;19.81;62.55
9343;BME280;4710;51.382;7.244;2022-09-27T22:41:16;97439.20;;;19.30;63.36
9343;BME280;4710;51.382;7.244;2022-09-27T22:43:57;97441.34;;;20.10;61.50
9343;BME280;4710;51.382;7.244;2022-09-27T22:46:35;97438.03;;;19.55;60.41
9343;BME280;4710;51.382;7.244;2022-09-27T22:49:16;97438.59;;;20.99;58.20
9343;BME280;4710;51.382;7.244;2022-09-27T22:51:57;97433.75;;;20.36;59.13
9343;BME280;4710;51.382;7.244;2022-09-27T22:54:41;97435.27;;;20.60;59.24
9343;BME280;4710;51.382;7.244;2022-09-27T22:57:33;97433.55;;;20.68;57.47
9343;BME280;4710;51.382;7.244;2022-09-27T23:00:14;97437.20;;;20.22;58.98
9343;BME280;4710;51.382;7.244;2022-09-27T23:03:00;97430.51;;;20.53;58.42
9343;BME280;4710;51.382;7.244;2022-09-27T23:05:37;97429.18;;;20.65;58.37
9343;BME280;4710;51.382;7.244;2022-09-27T23:08:18;97427.06;;;19.74;59.75
9343;BME280;4710;51.382;7.244;2022-09-27T23:11:00;97425.10;;;20.13;58.80
9343;BME280;4710;51.382;7.244;2022-09-27T23:48:48;97415.44;;;19.18;63.19
